sensor_id;sensor_type;location;lat;lon;timestamp;pressure;altitude;pressure_sealevel;temperature;humidity
70730;BME280;58315;53.336;55.932;2022-09-09T00:04:12;99896.50;;;11.97;56.81
70730;BME280;58315;53.336;55.932;2022-09-09T00:09:34;99896.50;;;11.97;56.98
70730;BME280;58315;53.336;55.932;2022-09-09T00:12:17;99901.63;;;12.09;57.11
70730;BME280;58315;53.336;55.932;2022-09-09T00:14:56;99895.78;;;12.05;57.22
70730;BME280;58315;53.336;55.932;2022-09-09T00:17:35;99896.63;;;12.15;56.66
70730;BME280;58315;53.336;55.932;2022-09-09T00:20:12;99884.34;;;12.04;56.81
70730;BME280;58315;53.336;55.932;2022-09-09T00:22:47;99893.00;;;11.97;56.90
70730;BME280;58315;53.336;55.932;2022-09-09T00:25:29;99892.31;;;12.04;56.87
70730;BME280;58315;53.336;55.932;2022-09-09T00:27:59;99896.88;;;12.02;57.05
70730;BME280;58315;53.336;55.932;2022-09-09T00:30:32;99891.88;;;12.09;56.92
70730;BME280;58315;53.336;55.932;2022-09-09T00:33:02;99895.94;;;12.03;57.28
70730;BME280;58315;53.336;55.932;2022-09-09T00:35:51;99895.22;;;12.01;57.39
70730;BME280;58315;53.336;55.932;2022-09-09T00:44:02;99881.31;;;11.99;56.85
70730;BME280;58315;53.336;55.932;2022-09-09T00:50:03;99859.41;;;12.07;57.07
70730;BME280;58315;53.336;55.932;2022-09-09T00:52:40;99859.69;;;12.04;56.93
70730;BME280;58315;53.336;55.932;2022-09-09T00:55:17;99857.88;;;11.95;57.00
70730;BME280;58315;53.336;55.932;2022-09-09T00:57:51;99852.03;;;11.91;56.97
70730;BME280;58315;53.336;55.932;2022-09-09T01:06:00;99847.88;;;11.89;57.28
70730;BME280;58315;53.336;55.932;2022-09-09T01:11:22;99848.81;;;11.88;58.14
70730;BME280;58315;53.336;55.932;2022-09-09T01:13:53;99853.84;;;11.81;58.04
70730;BME280;58315;53.336;55.932;2022-09-09T01:16:21;99854.38;;;11.55;58.47
70730;BME280;58315;53.336;55.932;2022-09-09T01:18:51;99849.22;;;11.64;58.62
70730;BME280;58315;53.336;55.932;2022-09-09T01:21:34;99853.81;;;11.62;59.19
70730;BME280;58315;53.336;55.932;2022-09-09T01:27:09;99850.75;;;11.56;58.95
70730;BME280;58315;53.336;55.932;2022-09-09T01:29:37;99862.72;;;11.61;58.98
70730;BME280;58315;53.336;55.932;2022-09-09T01:32:37;99857.59;;;11.78;59.10
70730;BME280;58315;53.336;55.932;2022-09-09T01:35:04;99854.94;;;11.69;59.24
70730;BME280;58315;53.336;55.932;2022-09-09T01:37:33;99856.59;;;11.70;59.05
70730;BME280;58315;53.336;55.932;2022-09-09T01:39:59;99858.28;;;11.71;58.58
70730;BME280;58315;53.336;55.932;2022-09-09T01:42:25;99854.66;;;11.72;58.46
70730;BME280;58315;53.336;55.932;2022-09-09T01:44:51;99858.97;;;11.73;58.55
70730;BME280;58315;53.336;55.932;2022-09-09T01:47:20;99849.09;;;11.75;58.91
70730;BME280;58315;53.336;55.932;2022-09-09T01:50:07;99849.81;;;11.87;58.64
70730;BME280;58315;53.336;55.932;2022-09-09T01:52:35;99842.97;;;11.84;58.58
70730;BME280;58315;53.336;55.932;2022-09-09T01:55:03;99844.66;;;11.85;58.52
70730;BME280;58315;53.336;55.932;2022-09-09T02:00:14;99851.03;;;11.82;57.82
70730;BME280;58315;53.336;55.932;2022-09-09T02:03:23;99844.91;;;11.82;57.88
70730;BME280;58315;53.336;55.932;2022-09-09T02:06:10;99846.31;;;11.67;58.60
70730;BME280;58315;53.336;55.932;2022-09-09T02:09:00;99843.06;;;11.53;58.65
70730;BME280;58315;53.336;55.932;2022-09-09T02:11:30;99846.28;;;11.38;58.65
70730;BME280;58315;53.336;55.932;2022-09-09T02:14:10;99838.22;;;11.49;58.64
70730;BME280;58315;53.336;55.932;2022-09-09T02:16:44;99842.50;;;11.40;58.74
70730;BME280;58315;53.336;55.932;2022-09-09T02:22:09;99826.91;;;11.37;58.73
70730;BME280;58315;53.336;55.932;2022-09-09T02:24:37;99835.28;;;11.42;58.32
70730;BME280;58315;53.336;55.932;2022-09-09T02:27:13;99834.03;;;11.46;58.31
70730;BME280;58315;53.336;55.932;2022-09-09T02:29:41;99833.59;;;11.41;58.36
70730;BME280;58315;53.336;55.932;2022-09-09T02:32:14;99835.41;;;11.50;58.25
70730;BME280;58315;53.336;55.932;2022-09-09T02:34:52;99833.75;;;11.49;58.34
70730;BME280;58315;53.336;55.932;2022-09-09T02:37:22;99830.38;;;11.47;58.61
70730;BME280;58315;53.336;55.932;2022-09-09T02:39:53;99826.09;;;11.46;58.70
70730;BME280;58315;53.336;55.932;2022-09-09T02:42:21;99819.81;;;11.47;58.19
70730;BME280;58315;53.336;55.932;2022-09-09T02:44:47;99825.66;;;11.51;58.41
70730;BME280;58315;53.336;55.932;2022-09-09T02:47:58;99817.03;;;11.58;57.66
70730;BME280;58315;53.336;55.932;2022-09-09T02:50:26;99821.19;;;11.51;57.78
70730;BME280;58315;53.336;55.932;2022-09-09T02:53:04;99822.75;;;11.54;58.29
70730;BME280;58315;53.336;55.932;2022-09-09T02:55:47;99829.56;;;11.56;58.33
70730;BME280;58315;53.336;55.932;2022-09-09T02:58:17;99831.38;;;11.66;57.83
70730;BME280;58315;53.336;55.932;2022-09-09T03:00:52;99827.47;;;11.70;57.77
70730;BME280;58315;53.336;55.932;2022-09-09T03:03:19;99827.91;;;11.75;57.80
70730;BME280;58315;53.336;55.932;2022-09-09T03:05:48;99826.38;;;11.82;57.16
70730;BME280;58315;53.336;55.932;2022-09-09T03:08:15;99825.53;;;11.91;57.27
70730;BME280;58315;53.336;55.932;2022-09-09T03:10:42;99824.00;;;11.98;57.51
70730;BME280;58315;53.336;55.932;2022-09-09T03:13:09;99821.22;;;12.00;57.44
70730;BME280;58315;53.336;55.932;2022-09-09T03:15:38;99826.75;;;12.16;57.22
70730;BME280;58315;53.336;55.932;2022-09-09T03:18:05;99820.06;;;12.22;56.91
70730;BME280;58315;53.336;55.932;2022-09-09T03:20:33;99815.88;;;12.29;56.79
70730;BME280;58315;53.336;55.932;2022-09-09T03:22:59;99818.91;;;12.44;56.79
70730;BME280;58315;53.336;55.932;2022-09-09T03:25:26;99817.81;;;12.64;56.69
70730;BME280;58315;53.336;55.932;2022-09-09T03:27:54;99817.00;;;12.91;56.57
70730;BME280;58315;53.336;55.932;2022-09-09T03:30:22;99816.72;;;13.12;56.02
70730;BME280;58315;53.336;55.932;2022-09-09T03:32:49;99810.00;;;13.27;55.71
70730;BME280;58315;53.336;55.932;2022-09-09T03:35:16;99807.19;;;13.47;55.59
70730;BME280;58315;53.336;55.932;2022-09-09T03:37:42;99813.16;;;13.67;55.36
70730;BME280;58315;53.336;55.932;2022-09-09T03:40:10;99799.63;;;13.78;55.03
70730;BME280;58315;53.336;55.932;2022-09-09T03:42:37;99805.69;;;13.88;54.96
70730;BME280;58315;53.336;55.932;2022-09-09T03:45:05;99808.94;;;14.00;54.91
70730;BME280;58315;53.336;55.932;2022-09-09T03:47:32;99800.53;;;14.05;54.79
70730;BME280;58315;53.336;55.932;2022-09-09T03:50:05;99795.41;;;14.37;54.98
70730;BME280;58315;53.336;55.932;2022-09-09T03:52:35;99807.22;;;14.69;54.52
70730;BME280;58315;53.336;55.932;2022-09-09T03:55:02;99801.97;;;14.77;53.79
70730;BME280;58315;53.336;55.932;2022-09-09T03:57:28;99799.44;;;14.76;53.58
70730;BME280;58315;53.336;55.932;2022-09-09T03:59:55;99797.19;;;14.89;53.01
70730;BME280;58315;53.336;55.932;2022-09-09T04:02:22;99796.38;;;14.97;53.30
70730;BME280;58315;53.336;55.932;2022-09-09T04:04:48;99802.44;;;15.31;52.89
70730;BME280;58315;53.336;55.932;2022-09-09T04:07:14;99816.00;;;16.03;52.49
70730;BME280;58315;53.336;55.932;2022-09-09T04:09:42;99821.34;;;16.83;49.66
70730;BME280;58315;53.336;55.932;2022-09-09T04:12:08;99818.88;;;17.36;49.66
70730;BME280;58315;53.336;55.932;2022-09-09T04:14:38;99817.50;;;18.91;47.06
70730;BME280;58315;53.336;55.932;2022-09-09T04:17:05;99822.28;;;20.11;45.28
70730;BME280;58315;53.336;55.932;2022-09-09T04:19:32;99820.66;;;20.17;42.41
70730;BME280;58315;53.336;55.932;2022-09-09T04:21:58;99814.94;;;19.77;43.11
70730;BME280;58315;53.336;55.932;2022-09-09T04:24:25;99820.78;;;19.44;43.49
70730;BME280;58315;53.336;55.932;2022-09-09T04:26:53;99816.56;;;18.99;43.95
70730;BME280;58315;53.336;55.932;2022-09-09T04:29:19;99821.13;;;18.16;44.30
70730;BME280;58315;53.336;55.932;2022-09-09T04:31:45;99827.78;;;17.82;45.39
70730;BME280;58315;53.336;55.932;2022-09-09T04:34:12;99825.69;;;17.70;45.40
70730;BME280;58315;53.336;55.932;2022-09-09T04:36:39;99829.16;;;17.78;45.04
70730;BME280;58315;53.336;55.932;2022-09-09T04:39:06;99824.84;;;18.30;43.77
70730;BME280;58315;53.336;55.932;2022-09-09T04:41:32;99814.69;;;19.14;42.78
70730;BME280;58315;53.336;55.932;2022-09-09T04:43:58;99823.78;;;19.56;42.30
70730;BME280;58315;53.336;55.932;2022-09-09T04:46:26;99825.97;;;19.46;42.31
70730;BME280;58315;53.336;55.932;2022-09-09T04:48:52;99830.22;;;19.40;41.79
70730;BME280;58315;53.336;55.932;2022-09-09T04:51:20;99832.31;;;19.45;42.64
70730;BME280;58315;53.336;55.932;2022-09-09T04:53:48;99830.13;;;19.70;42.13
70730;BME280;58315;53.336;55.932;2022-09-09T04:56:17;99823.16;;;19.54;42.76
70730;BME280;58315;53.336;55.932;2022-09-09T04:58:52;99823.75;;;19.13;42.67
70730;BME280;58315;53.336;55.932;2022-09-09T05:01:22;99828.22;;;18.76;42.50
70730;BME280;58315;53.336;55.932;2022-09-09T05:03:50;99831.97;;;18.52;42.82
70730;BME280;58315;53.336;55.932;2022-09-09T05:06:21;99827.06;;;18.26;43.17
70730;BME280;58315;53.336;55.932;2022-09-09T05:08:50;99824.47;;;18.18;43.01
70730;BME280;58315;53.336;55.932;2022-09-09T05:11:24;99827.78;;;17.82;43.06
70730;BME280;58315;53.336;55.932;2022-09-09T05:13:54;99826.41;;;17.64;43.65
70730;BME280;58315;53.336;55.932;2022-09-09T05:16:20;99825.84;;;17.68;43.82
70730;BME280;58315;53.336;55.932;2022-09-09T05:18:47;99829.75;;;17.57;43.63
70730;BME280;58315;53.336;55.932;2022-09-09T05:21:14;99824.34;;;17.43;43.96
70730;BME280;58315;53.336;55.932;2022-09-09T05:23:41;99828.38;;;17.39;44.08
70730;BME280;58315;53.336;55.932;2022-09-09T05:26:11;99832.72;;;17.40;44.59
70730;BME280;58315;53.336;55.932;2022-09-09T05:28:37;99826.31;;;17.49;44.95
70730;BME280;58315;53.336;55.932;2022-09-09T05:31:07;99830.59;;;17.35;44.59
70730;BME280;58315;53.336;55.932;2022-09-09T05:33:43;99833.03;;;17.45;44.38
70730;BME280;58315;53.336;55.932;2022-09-09T05:36:14;99826.25;;;17.34;44.48
70730;BME280;58315;53.336;55.932;2022-09-09T05:38:41;99826.94;;;17.28;45.12
70730;BME280;58315;53.336;55.932;2022-09-09T05:41:09;99828.75;;;17.35;45.22
70730;BME280;58315;53.336;55.932;2022-09-09T05:43:37;99830.09;;;17.31;45.67
70730;BME280;58315;53.336;55.932;2022-09-09T05:46:08;99834.69;;;17.46;45.90
70730;BME280;58315;53.336;55.932;2022-09-09T05:48:37;99829.69;;;17.43;45.82
70730;BME280;58315;53.336;55.932;2022-09-09T05:51:14;99826.38;;;17.41;45.81
70730;BME280;58315;53.336;55.932;2022-09-09T05:53:44;99833.03;;;17.45;45.76
70730;BME280;58315;53.336;55.932;2022-09-09T05:56:16;99835.28;;;17.56;45.48
70730;BME280;58315;53.336;55.932;2022-09-09T05:58:46;99835.72;;;17.45;45.78
70730;BME280;58315;53.336;55.932;2022-09-09T06:01:21;99837.19;;;17.16;45.93
70730;BME280;58315;53.336;55.932;2022-09-09T06:03:48;99835.75;;;17.05;46.13
70730;BME280;58315;53.336;55.932;2022-09-09T06:06:20;99833.72;;;17.16;46.30
70730;BME280;58315;53.336;55.932;2022-09-09T06:08:57;99829.06;;;17.09;46.68
70730;BME280;58315;53.336;55.932;2022-09-09T06:11:28;99832.59;;;17.02;46.83
70730;BME280;58315;53.336;55.932;2022-09-09T06:13:59;99832.63;;;16.94;46.94
70730;BME280;58315;53.336;55.932;2022-09-09T06:16:30;99833.63;;;17.01;47.24
70730;BME280;58315;53.336;55.932;2022-09-09T06:18:58;99832.94;;;16.99;47.38
70730;BME280;58315;53.336;55.932;2022-09-09T06:21:31;99839.91;;;17.08;47.16
70730;BME280;58315;53.336;55.932;2022-09-09T06:24:00;99838.28;;;16.99;47.46
70730;BME280;58315;53.336;55.932;2022-09-09T06:26:33;99842.25;;;17.03;47.67
70730;BME280;58315;53.336;55.932;2022-09-09T06:29:01;99843.81;;;16.89;47.96
70730;BME280;58315;53.336;55.932;2022-09-09T06:31:31;99852.00;;;16.87;48.22
70730;BME280;58315;53.336;55.932;2022-09-09T06:34:05;99851.22;;;16.79;48.58
70730;BME280;58315;53.336;55.932;2022-09-09T06:36:37;99859.72;;;16.74;49.04
70730;BME280;58315;53.336;55.932;2022-09-09T06:39:04;99849.38;;;16.63;49.25
70730;BME280;58315;53.336;55.932;2022-09-09T06:41:32;99847.78;;;16.46;49.86
70730;BME280;58315;53.336;55.932;2022-09-09T06:43:59;99847.31;;;16.18;50.42
70730;BME280;58315;53.336;55.932;2022-09-09T06:46:41;99849.16;;;16.09;50.89
70730;BME280;58315;53.336;55.932;2022-09-09T06:49:09;99847.63;;;16.14;51.35
70730;BME280;58315;53.336;55.932;2022-09-09T06:51:36;99849.28;;;16.15;50.93
70730;BME280;58315;53.336;55.932;2022-09-09T06:54:09;99846.97;;;16.04;51.20
70730;BME280;58315;53.336;55.932;2022-09-09T06:56:38;99843.16;;;15.99;52.06
70730;BME280;58315;53.336;55.932;2022-09-09T06:59:11;99852.78;;;16.16;51.48
70730;BME280;58315;53.336;55.932;2022-09-09T07:01:40;99856.44;;;16.23;51.92
70730;BME280;58315;53.336;55.932;2022-09-09T07:04:09;99855.47;;;16.24;51.29
70730;BME280;58315;53.336;55.932;2022-09-09T07:06:43;99857.94;;;16.34;51.07
70730;BME280;58315;53.336;55.932;2022-09-09T07:09:14;99860.63;;;16.42;51.27
70730;BME280;58315;53.336;55.932;2022-09-09T07:11:46;99862.09;;;16.45;51.31
70730;BME280;58315;53.336;55.932;2022-09-09T07:14:13;99861.09;;;16.37;50.22
70730;BME280;58315;53.336;55.932;2022-09-09T07:16:42;99867.09;;;16.39;50.27
70730;BME280;58315;53.336;55.932;2022-09-09T07:19:10;99866.56;;;16.52;50.25
70730;BME280;58315;53.336;55.932;2022-09-09T07:21:37;99875.75;;;16.58;50.24
70730;BME280;58315;53.336;55.932;2022-09-09T07:24:03;99869.03;;;16.70;50.43
70730;BME280;58315;53.336;55.932;2022-09-09T07:26:33;99869.22;;;16.77;49.66
70730;BME280;58315;53.336;55.932;2022-09-09T07:29:01;99870.22;;;16.76;49.81
70730;BME280;58315;53.336;55.932;2022-09-09T07:31:33;99866.19;;;16.88;50.36
70730;BME280;58315;53.336;55.932;2022-09-09T07:34:00;99868.69;;;16.81;50.62
70730;BME280;58315;53.336;55.932;2022-09-09T07:36:32;99872.41;;;16.64;50.94
70730;BME280;58315;53.336;55.932;2022-09-09T07:39:01;99875.94;;;16.56;51.11
70730;BME280;58315;53.336;55.932;2022-09-09T07:41:34;99889.44;;;16.47;50.29
70730;BME280;58315;53.336;55.932;2022-09-09T07:44:18;99882.44;;;16.46;49.83
70730;BME280;58315;53.336;55.932;2022-09-09T07:46:48;99880.63;;;16.22;50.84
70730;BME280;58315;53.336;55.932;2022-09-09T07:49:19;99874.09;;;16.16;50.10
70730;BME280;58315;53.336;55.932;2022-09-09T07:51:47;99870.81;;;16.14;50.77
70730;BME280;58315;53.336;55.932;2022-09-09T07:54:16;99868.94;;;16.23;50.77
70730;BME280;58315;53.336;55.932;2022-09-09T07:56:46;99866.78;;;16.18;49.91
70730;BME280;58315;53.336;55.932;2022-09-09T07:59:12;99863.28;;;16.26;50.30
70730;BME280;58315;53.336;55.932;2022-09-09T08:01:43;99867.44;;;16.53;50.42
70730;BME280;58315;53.336;55.932;2022-09-09T08:04:17;99853.16;;;16.85;50.76
70730;BME280;58315;53.336;55.932;2022-09-09T08:06:54;99855.22;;;17.22;50.04
70730;BME280;58315;53.336;55.932;2022-09-09T08:09:22;99854.75;;;17.42;49.94
70730;BME280;58315;53.336;55.932;2022-09-09T08:11:51;99848.00;;;17.54;49.57
70730;BME280;58315;53.336;55.932;2022-09-09T08:14:17;99842.28;;;17.57;48.31
70730;BME280;58315;53.336;55.932;2022-09-09T08:16:47;99847.28;;;17.60;48.64
70730;BME280;58315;53.336;55.932;2022-09-09T08:19:17;99840.66;;;17.56;47.84
70730;BME280;58315;53.336;55.932;2022-09-09T08:21:45;99845.97;;;17.56;47.17
70730;BME280;58315;53.336;55.932;2022-09-09T08:24:12;99846.34;;;17.53;47.33
70730;BME280;58315;53.336;55.932;2022-09-09T08:26:41;99840.81;;;17.54;47.62
70730;BME280;58315;53.336;55.932;2022-09-09T08:29:10;99846.28;;;17.61;47.72
70730;BME280;58315;53.336;55.932;2022-09-09T08:31:39;99848.53;;;17.72;47.15
70730;BME280;58315;53.336;55.932;2022-09-09T08:34:07;99849.91;;;17.68;46.76
70730;BME280;58315;53.336;55.932;2022-09-09T08:36:37;99847.50;;;17.81;47.13
70730;BME280;58315;53.336;55.932;2022-09-09T08:39:05;99852.84;;;17.81;46.44
70730;BME280;58315;53.336;55.932;2022-09-09T08:52:29;99840.66;;;17.25;47.76
70730;BME280;58315;53.336;55.932;2022-09-09T08:54:58;99835.16;;;17.26;47.79
70730;BME280;58315;53.336;55.932;2022-09-09T08:57:30;99832.41;;;17.11;47.93
70730;BME280;58315;53.336;55.932;2022-09-09T08:59:58;99833.72;;;17.16;47.72
70730;BME280;58315;53.336;55.932;2022-09-09T09:05:46;99837.06;;;17.41;48.06
70730;BME280;58315;53.336;55.932;2022-09-09T09:08:18;99833.94;;;17.29;47.45
70730;BME280;58315;53.336;55.932;2022-09-09T09:10:50;99827.78;;;17.28;47.24
70730;BME280;58315;53.336;55.932;2022-09-09T09:13:29;99834.56;;;17.39;47.85
70730;BME280;58315;53.336;55.932;2022-09-09T09:16:06;99828.38;;;17.39;47.79
70730;BME280;58315;53.336;55.932;2022-09-09T09:18:35;99818.38;;;17.41;47.71
70730;BME280;58315;53.336;55.932;2022-09-09T09:21:12;99819.00;;;17.43;47.22
70730;BME280;58315;53.336;55.932;2022-09-09T09:23:49;99816.19;;;17.44;47.30
70730;BME280;58315;53.336;55.932;2022-09-09T09:26:21;99814.91;;;17.55;47.00
70730;BME280;58315;53.336;55.932;2022-09-09T09:28:48;99815.28;;;17.75;47.10
70730;BME280;58315;53.336;55.932;2022-09-09T09:31:18;99802.84;;;18.05;46.38
70730;BME280;58315;53.336;55.932;2022-09-09T09:33:49;99806.22;;;18.37;45.69
70730;BME280;58315;53.336;55.932;2022-09-09T09:36:17;99805.56;;;18.49;43.58
70730;BME280;58315;53.336;55.932;2022-09-09T09:38:58;99799.66;;;18.24;43.75
70730;BME280;58315;53.336;55.932;2022-09-09T09:41:31;99807.88;;;18.38;44.12
70730;BME280;58315;53.336;55.932;2022-09-09T09:43:58;99804.19;;;18.39;44.05
70730;BME280;58315;53.336;55.932;2022-09-09T09:46:28;99799.94;;;18.44;44.69
70730;BME280;58315;53.336;55.932;2022-09-09T09:49:01;99795.34;;;18.53;44.59
70730;BME280;58315;53.336;55.932;2022-09-09T09:51:30;99791.72;;;18.61;44.34
70730;BME280;58315;53.336;55.932;2022-09-09T09:54:08;99791.66;;;18.84;44.31
70730;BME280;58315;53.336;55.932;2022-09-09T09:56:40;99781.59;;;18.86;44.15
70730;BME280;58315;53.336;55.932;2022-09-09T09:59:33;99771.50;;;19.02;44.00
70730;BME280;58315;53.336;55.932;2022-09-09T10:04:38;99768.31;;;18.63;44.17
70730;BME280;58315;53.336;55.932;2022-09-09T10:07:21;99761.19;;;18.85;44.34
70730;BME280;58315;53.336;55.932;2022-09-09T10:09:57;99760.94;;;18.79;43.66
70730;BME280;58315;53.336;55.932;2022-09-09T10:29:30;99749.78;;;18.61;44.02
70730;BME280;58315;53.336;55.932;2022-09-09T10:32:11;99748.09;;;18.60;44.10
70730;BME280;58315;53.336;55.932;2022-09-09T10:34:56;99739.44;;;18.58;44.33
70730;BME280;58315;53.336;55.932;2022-09-09T10:42:46;99734.09;;;18.58;44.23
70730;BME280;58315;53.336;55.932;2022-09-09T10:45:19;99728.41;;;18.68;43.82
70730;BME280;58315;53.336;55.932;2022-09-09T10:55:57;99725.28;;;18.64;42.29
70730;BME280;58315;53.336;55.932;2022-09-09T10:58:38;99716.44;;;18.49;42.53
70730;BME280;58315;53.336;55.932;2022-09-09T11:01:15;99721.09;;;18.40;43.13
70730;BME280;58315;53.336;55.932;2022-09-09T11:03:49;99717.38;;;18.41;42.98
70730;BME280;58315;53.336;55.932;2022-09-09T11:06:23;99720.16;;;18.48;43.10
70730;BME280;58315;53.336;55.932;2022-09-09T11:08:51;99708.91;;;18.38;43.47
70730;BME280;58315;53.336;55.932;2022-09-09T11:11:29;99717.47;;;18.48;43.76
70730;BME280;58315;53.336;55.932;2022-09-09T11:14:03;99716.56;;;18.41;43.86
70730;BME280;58315;53.336;55.932;2022-09-09T11:19:36;99702.53;;;18.39;43.89
70730;BME280;58315;53.336;55.932;2022-09-09T11:22:21;99701.34;;;18.41;44.03
70730;BME280;58315;53.336;55.932;2022-09-09T11:27:50;99704.28;;;18.46;44.04
70730;BME280;58315;53.336;55.932;2022-09-09T11:30:22;99704.56;;;18.37;43.73
70730;BME280;58315;53.336;55.932;2022-09-09T11:33:07;99698.22;;;18.23;43.69
70730;BME280;58315;53.336;55.932;2022-09-09T11:36:05;99706.13;;;18.31;43.29
70730;BME280;58315;53.336;55.932;2022-09-09T11:38:46;99705.59;;;18.36;43.87
70730;BME280;58315;53.336;55.932;2022-09-09T11:41:14;99703.38;;;18.39;43.83
70730;BME280;58315;53.336;55.932;2022-09-09T11:43:42;99706.94;;;18.46;43.72
70730;BME280;58315;53.336;55.932;2022-09-09T11:46:09;99706.78;;;18.48;43.28
70730;BME280;58315;53.336;55.932;2022-09-09T11:48:43;99701.50;;;18.54;43.19
70730;BME280;58315;53.336;55.932;2022-09-09T11:54:02;99689.97;;;18.54;43.50
70730;BME280;58315;53.336;55.932;2022-09-09T11:56:44;99684.81;;;18.52;43.77
70730;BME280;58315;53.336;55.932;2022-09-09T11:59:23;99675.66;;;18.62;43.35
70730;BME280;58315;53.336;55.932;2022-09-09T12:01:55;99681.47;;;18.65;43.91
70730;BME280;58315;53.336;55.932;2022-09-09T12:04:30;99682.47;;;18.79;44.35
70730;BME280;58315;53.336;55.932;2022-09-09T12:06:58;99679.53;;;18.74;43.85
70730;BME280;58315;53.336;55.932;2022-09-09T12:09:47;99677.63;;;18.89;43.94
70730;BME280;58315;53.336;55.932;2022-09-09T12:19:41;99675.13;;;18.51;44.09
70730;BME280;58315;53.336;55.932;2022-09-09T12:27:31;99662.88;;;18.27;45.25
70730;BME280;58315;53.336;55.932;2022-09-09T12:30:04;99673.88;;;18.03;45.96
70730;BME280;58315;53.336;55.932;2022-09-09T12:32:30;99670.28;;;17.96;46.34
70730;BME280;58315;53.336;55.932;2022-09-09T12:35:09;99680.59;;;17.84;47.15
70730;BME280;58315;53.336;55.932;2022-09-09T12:37:44;99678.00;;;17.76;47.82
70730;BME280;58315;53.336;55.932;2022-09-09T12:40:25;99678.53;;;17.71;47.92
70730;BME280;58315;53.336;55.932;2022-09-09T12:42:52;99677.31;;;17.59;48.17
70730;BME280;58315;53.336;55.932;2022-09-09T12:45:20;99680.94;;;17.66;48.14
70730;BME280;58315;53.336;55.932;2022-09-09T12:47:51;99689.50;;;17.76;48.32
70730;BME280;58315;53.336;55.932;2022-09-09T12:50:25;99684.94;;;17.85;48.93
70730;BME280;58315;53.336;55.932;2022-09-09T12:53:02;99693.97;;;17.61;46.65
70730;BME280;58315;53.336;55.932;2022-09-09T12:55:32;99703.13;;;17.44;46.92
70730;BME280;58315;53.336;55.932;2022-09-09T12:58:00;99705.28;;;17.25;46.37
70730;BME280;58315;53.336;55.932;2022-09-09T13:00:30;99705.66;;;17.22;46.38
70730;BME280;58315;53.336;55.932;2022-09-09T13:03:13;99690.75;;;17.28;46.32
70730;BME280;58315;53.336;55.932;2022-09-09T13:05:40;99690.13;;;17.26;45.99
70730;BME280;58315;53.336;55.932;2022-09-09T13:08:09;99694.59;;;17.25;46.25
70730;BME280;58315;53.336;55.932;2022-09-09T13:13:15;99701.84;;;17.40;46.74
70730;BME280;58315;53.336;55.932;2022-09-09T13:15:54;99695.13;;;17.44;46.66
70730;BME280;58315;53.336;55.932;2022-09-09T13:18:29;99695.91;;;17.29;46.30
70730;BME280;58315;53.336;55.932;2022-09-09T13:20:56;99695.34;;;17.19;46.70
70730;BME280;58315;53.336;55.932;2022-09-09T13:23:31;99693.91;;;17.31;46.25
70730;BME280;58315;53.336;55.932;2022-09-09T13:26:19;99697.00;;;17.20;46.31
70730;BME280;58315;53.336;55.932;2022-09-09T13:28:47;99697.56;;;17.07;46.51
70730;BME280;58315;53.336;55.932;2022-09-09T13:31:29;99691.72;;;17.12;46.33
70730;BME280;58315;53.336;55.932;2022-09-09T13:33:55;99692.66;;;16.96;47.10
70730;BME280;58315;53.336;55.932;2022-09-09T13:36:33;99698.44;;;17.08;47.08
70730;BME280;58315;53.336;55.932;2022-09-09T13:39:01;99685.88;;;16.85;47.95
70730;BME280;58315;53.336;55.932;2022-09-09T13:41:45;99682.94;;;16.72;48.75
70730;BME280;58315;53.336;55.932;2022-09-09T13:44:22;99674.03;;;16.49;49.15
70730;BME280;58315;53.336;55.932;2022-09-09T13:47:04;99686.41;;;16.42;49.86
70730;BME280;58315;53.336;55.932;2022-09-09T13:49:30;99676.00;;;16.24;50.24
70730;BME280;58315;53.336;55.932;2022-09-09T13:52:12;99684.50;;;16.27;50.36
70730;BME280;58315;53.336;55.932;2022-09-09T13:54:49;99681.38;;;16.07;51.02
70730;BME280;58315;53.336;55.932;2022-09-09T13:57:20;99679.88;;;16.05;51.22
70730;BME280;58315;53.336;55.932;2022-09-09T13:59:47;99680.59;;;15.99;51.30
70730;BME280;58315;53.336;55.932;2022-09-09T14:02:14;99674.25;;;16.00;51.54
70730;BME280;58315;53.336;55.932;2022-09-09T14:04:42;99689.56;;;15.98;51.85
70730;BME280;58315;53.336;55.932;2022-09-09T14:07:12;99682.59;;;15.97;51.93
70730;BME280;58315;53.336;55.932;2022-09-09T14:09:39;99684.97;;;15.83;52.13
70730;BME280;58315;53.336;55.932;2022-09-09T14:12:10;99684.28;;;15.81;51.79
70730;BME280;58315;53.336;55.932;2022-09-09T14:14:36;99686.78;;;15.83;52.23
70730;BME280;58315;53.336;55.932;2022-09-09T14:17:05;99681.66;;;15.73;52.75
70730;BME280;58315;53.336;55.932;2022-09-09T14:19:31;99682.94;;;15.61;52.22
70730;BME280;58315;53.336;55.932;2022-09-09T14:21:57;99685.97;;;15.58;52.41
70730;BME280;58315;53.336;55.932;2022-09-09T14:24:23;99685.94;;;15.50;52.37
70730;BME280;58315;53.336;55.932;2022-09-09T14:26:51;99687.63;;;15.51;52.44
70730;BME280;58315;53.336;55.932;2022-09-09T14:29:17;99683.97;;;15.52;52.37
70730;BME280;58315;53.336;55.932;2022-09-09T14:31:43;99685.13;;;15.49;52.63
70730;BME280;58315;53.336;55.932;2022-09-09T14:34:09;99682.97;;;15.44;52.45
70730;BME280;58315;53.336;55.932;2022-09-09T14:36:40;99683.16;;;15.43;52.70
70730;BME280;58315;53.336;55.932;2022-09-09T14:39:07;99688.97;;;15.30;53.00
70730;BME280;58315;53.336;55.932;2022-09-09T14:41:33;99683.63;;;15.30;53.05
70730;BME280;58315;53.336;55.932;2022-09-09T14:43:59;99684.66;;;15.29;53.14
70730;BME280;58315;53.336;55.932;2022-09-09T14:46:26;99688.78;;;15.24;53.38
70730;BME280;58315;53.336;55.932;2022-09-09T14:48:55;99687.31;;;15.21;53.53
70730;BME280;58315;53.336;55.932;2022-09-09T14:51:23;99685.31;;;15.23;54.08
70730;BME280;58315;53.336;55.932;2022-09-09T14:53:57;99676.31;;;15.24;54.44
70730;BME280;58315;53.336;55.932;2022-09-09T14:56:26;99677.13;;;15.16;54.57